Terminal Aerodrome Forecast
Issued by NWS

Home | Current Version | Previous Version | Text Only | Print | Product List | Glossary On
Versions: 1 2 3 4 5 6 7 8 9 10 11 12 13 14 15 16
000
FTUS43 KOAX 261144
TAFSNY
TAF
KSNY 261144Z 2612/2712 33016KT P6SM BKN050 OVC080
     FM261800 23006KT P6SM BKN050 OVC100
     FM270100 21007KT P6SM BKN100=

USA.gov is the U.S. government's official web portal to all federal, state and local government web resources and services.